| time (UTC) | temp F | wind direction | speed MPH | gust MPH | rain 1hr in | rain 24hr in | rain mn in | humidity % | barometer mb |
| 20260509075503 | 85 | 258 | 0.0 | 2.0 | 0.00 | 0.09 | 0.04 | 55 | 982.3 |
| 20260509075005 | 85 | 259 | 0.0 | 2.0 | 0.00 | 0.09 | 0.04 | 55 | 982.3 |
| 20260509074504 | 85 | 270 | 1.0 | 2.0 | 0.00 | 0.09 | 0.04 | 55 | 982.3 |
| 20260509074004 | 85 | 0 | 0.0 | 0.0 | 0.00 | 0.09 | 0.04 | 55 | 982.5 |
| 20260509073504 | 85 | 0 | 0.0 | 0.0 | 0.00 | 0.09 | 0.04 | 54 | 982.4 |
| 20260509073004 | 86 | 46 | 0.0 | 1.0 | 0.00 | 0.09 | 0.04 | 54 | 982.4 |
| 20260509072505 | 86 | 104 | 0.0 | 4.0 | 0.00 | 0.09 | 0.04 | 55 | 982.4 |
| 20260509072004 | 86 | 90 | 0.0 | 4.0 | 0.00 | 0.09 | 0.04 | 55 | 982.3 |
| 20260509071504 | 86 | 290 | 1.0 | 4.0 | 0.00 | 0.09 | 0.04 | 54 | 982.4 |
| 20260509071004 | 86 | 142 | 0.0 | 1.0 | 0.00 | 0.09 | 0.04 | 54 | 982.6 |
| 20260509070504 | 86 | 149 | 0.0 | 1.0 | 0.00 | 0.09 | 0.04 | 54 | 982.4 |
| 20260509070004 | 86 | 217 | 0.0 | 4.0 | 0.00 | 0.09 | 0.04 | 54 | 982.5 |
| 20260509065504 | 86 | 240 | 0.0 | 4.0 | 0.00 | 0.09 | 0.04 | 54 | 982.5 |
| 20260509065004 | 86 | 245 | 2.0 | 4.0 | 0.00 | 0.09 | 0.04 | 54 | 982.4 |
| 20260509064004 | 86 | 114 | 0.0 | 2.0 | 0.00 | 0.09 | 0.04 | 54 | 982.6 |
| 20260509063504 | 86 | 307 | 0.0 | 4.0 | 0.00 | 0.09 | 0.04 | 53 | 982.4 |
| 20260509063004 | 87 | 287 | 0.0 | 4.0 | 0.00 | 0.09 | 0.04 | 53 | 982.6 |
| 20260509062504 | 87 | 260 | 0.0 | 3.0 | 0.00 | 0.09 | 0.04 | 53 | 982.5 |
| 20260509062004 | 87 | 261 | 0.0 | 3.0 | 0.00 | 0.09 | 0.04 | 53 | 982.5 |
| 20260509061505 | 87 | 265 | 0.0 | 4.0 | 0.00 | 0.09 | 0.04 | 53 | 982.7 |
| 20260509061004 | 87 | 270 | 0.0 | 4.0 | 0.00 | 0.09 | 0.04 | 53 | 982.6 |
| 20260509060004 | 88 | 258 | 0.0 | 3.0 | 0.00 | 0.09 | 0.04 | 53 | 983.0 |
| 20260509055504 | 88 | 273 | 0.0 | 1.0 | 0.00 | 0.09 | 0.04 | 53 | 983.0 |
| 20260509054004 | 88 | 178 | 0.0 | 2.0 | 0.00 | 0.09 | 0.04 | 53 | 982.9 |
| 20260509053504 | 88 | 160 | 0.0 | 1.0 | 0.00 | 0.09 | 0.04 | 54 | 982.9 |
| 20260509053004 | 88 | 0 | 0.0 | 0.0 | 0.00 | 0.09 | 0.04 | 53 | 983.0 |
| 20260509052504 | 88 | 225 | 0.0 | 1.0 | 0.00 | 0.09 | 0.04 | 54 | 983.1 |
| 20260509052004 | 88 | 225 | 0.0 | 1.0 | 0.00 | 0.09 | 0.04 | 54 | 983.1 |
| 20260509051504 | 88 | 270 | 0.0 | 2.0 | 0.00 | 0.09 | 0.04 | 54 | 983.1 |
| 20260509051005 | 88 | 322 | 0.0 | 2.0 | 0.00 | 0.09 | 0.04 | 54 | 983.0 |
| 20260509050504 | 88 | 29 | 0.0 | 2.0 | 0.00 | 0.09 | 0.04 | 54 | 983.1 |
| 20260509045004 | 87 | 248 | 0.0 | 1.0 | 0.00 | 0.09 | 0.04 | 53 | 983.1 |
| 20260509044504 | 87 | 192 | 0.0 | 1.0 | 0.00 | 0.09 | 0.04 | 54 | 983.3 |
| 20260509044005 | 87 | 257 | 0.0 | 2.0 | 0.00 | 0.09 | 0.04 | 54 | 983.4 |
| 20260509043504 | 87 | 285 | 0.0 | 2.0 | 0.00 | 0.09 | 0.04 | 53 | 983.6 |
| 20260509043004 | 87 | 270 | 0.0 | 1.0 | 0.00 | 0.09 | 0.04 | 54 | 983.5 |
| 20260509042504 | 88 | 356 | 0.0 | 4.0 | 0.00 | 0.09 | 0.04 | 53 | 983.5 |
| 20260509042004 | 88 | 1 | 0.0 | 4.0 | 0.00 | 0.09 | 0.04 | 53 | 983.4 |
| 20260509041504 | 87 | 182 | 0.0 | 2.0 | 0.00 | 0.09 | 0.04 | 53 | 983.6 |
| 20260509040504 | 88 | 0 | 0.0 | 0.0 | 0.00 | 0.09 | 0.04 | 54 | 983.6 |
| 20260509040005 | 87 | 225 | 0.0 | 2.0 | 0.00 | 0.09 | 0.04 | 54 | 983.7 |
| 20260509035504 | 87 | 277 | 0.0 | 4.0 | 0.00 | 0.09 | 0.04 | 54 | 983.7 |
| 20260509035004 | 87 | 314 | 0.0 | 4.0 | 0.00 | 0.09 | 0.04 | 54 | 983.9 |
| 20260509034504 | 87 | 0 | 0.0 | 0.0 | 0.00 | 0.09 | 0.04 | 55 | 984.1 |
| 20260509034004 | 87 | 225 | 0.0 | 1.0 | 0.00 | 0.09 | 0.04 | 55 | 984.2 |
| 20260509033504 | 87 | 225 | 0.0 | 1.0 | 0.00 | 0.09 | 0.04 | 54 | 983.9 |
| 20260509033004 | 87 | 111 | 0.0 | 1.0 | 0.00 | 0.09 | 0.04 | 53 | 984.0 |
| 20260509032005 | 87 | 0 | 0.0 | 0.0 | 0.00 | 0.09 | 0.04 | 53 | 984.0 |
| 20260509031504 | 87 | 0 | 0.0 | 0.0 | 0.00 | 0.09 | 0.04 | 53 | 984.3 |
| 20260509031005 | 87 | 225 | 0.0 | 1.0 | 0.00 | 0.09 | 0.04 | 53 | 984.2 |
| 20260509030504 | 86 | 179 | 0.0 | 1.0 | 0.00 | 0.09 | 0.04 | 54 | 984.4 |
| 20260509030005 | 86 | 322 | 0.0 | 1.0 | 0.00 | 0.09 | 0.04 | 53 | 984.4 |
| 20260509025504 | 86 | 326 | 0.0 | 1.0 | 0.00 | 0.09 | 0.04 | 54 | 984.4 |
| 20260509025004 | 86 | 0 | 0.0 | 0.0 | 0.00 | 0.09 | 0.04 | 54 | 984.6 |
| 20260509024004 | 86 | 139 | 0.0 | 2.0 | 0.00 | 0.09 | 0.04 | 54 | 984.7 |
| 20260509023504 | 86 | 137 | 0.0 | 5.0 | 0.00 | 0.09 | 0.04 | 54 | 984.8 |
| 20260509023004 | 86 | 281 | 0.0 | 5.0 | 0.00 | 0.09 | 0.04 | 54 | 984.5 |
| 20260509022504 | 86 | 89 | 0.0 | 2.0 | 0.00 | 0.09 | 0.04 | 55 | 984.5 |
| 20260509022005 | 86 | 100 | 0.0 | 2.0 | 0.00 | 0.09 | 0.04 | 55 | 984.7 |
| 20260509021504 | 86 | 135 | 0.0 | 1.0 | 0.00 | 0.09 | 0.04 | 55 | 984.5 |
| 20260509020505 | 86 | 90 | 0.0 | 1.0 | 0.00 | 0.09 | 0.04 | 56 | 984.9 |
| 20260509020004 | 86 | 90 | 0.0 | 1.0 | 0.00 | 0.09 | 0.04 | 56 | 984.9 |
| 20260509015505 | 85 | 0 | 0.0 | 0.0 | 0.00 | 0.09 | 0.04 | 57 | 984.9 |
| 20260509015004 | 85 | 0 | 0.0 | 0.0 | 0.00 | 0.09 | 0.04 | 57 | 984.9 |
| 20260509014504 | 85 | 0 | 0.0 | 0.0 | 0.00 | 0.09 | 0.04 | 58 | 984.9 |
| 20260509014005 | 84 | 0 | 0.0 | 0.0 | 0.00 | 0.09 | 0.04 | 60 | 984.9 |
| 20260509013505 | 83 | 0 | 0.0 | 0.0 | 0.00 | 0.09 | 0.04 | 61 | 984.9 |
| 20260509013004 | 82 | 0 | 0.0 | 0.0 | 0.00 | 0.09 | 0.04 | 62 | 985.1 |
| 20260509012505 | 81 | 0 | 0.0 | 0.0 | 0.00 | 0.09 | 0.04 | 65 | 985.0 |
| 20260509012004 | 80 | 0 | 0.0 | 0.0 | 0.00 | 0.09 | 0.04 | 65 | 984.7 |
| 20260509011504 | 80 | 79 | 0.0 | 1.0 | 0.00 | 0.09 | 0.04 | 65 | 984.8 |
| 20260509010505 | 80 | 86 | 0.0 | 1.0 | 0.00 | 0.09 | 0.04 | 65 | 984.9 |
| 20260509010004 | 80 | 90 | 0.0 | 1.0 | 0.00 | 0.09 | 0.04 | 65 | 984.9 |
| 20260509005505 | 80 | 90 | 0.0 | 1.0 | 0.00 | 0.09 | 0.04 | 65 | 985.0 |
| 20260509005005 | 80 | 90 | 0.0 | 1.0 | 0.00 | 0.09 | 0.04 | 66 | 984.8 |
| 20260509004504 | 80 | 90 | 0.0 | 1.0 | 0.00 | 0.09 | 0.04 | 66 | 984.9 |
| 20260509003504 | 79 | 115 | 0.0 | 1.0 | 0.00 | 0.09 | 0.04 | 66 | 984.8 |
| 20260509003005 | 79 | 141 | 0.0 | 1.0 | 0.00 | 0.09 | 0.04 | 66 | 985.0 |
| 20260509002004 | 79 | 1 | 0.0 | 1.0 | 0.00 | 0.09 | 0.04 | 66 | 984.8 |
| 20260509001005 | 79 | 0 | 0.0 | 0.0 | 0.00 | 0.09 | 0.04 | 67 | 984.7 |
| 20260509000506 | 79 | 0 | 0.0 | 0.0 | 0.00 | 0.09 | 0.04 | 67 | 984.5 |
| 20260509000005 | 78 | 90 | 0.0 | 1.0 | 0.00 | 0.09 | 0.04 | 67 | 984.7 |
| 20260508234506 | 77 | 0 | 0.0 | 0.0 | 0.00 | 0.09 | 0.04 | 68 | 984.4 |
| 20260508234004 | 77 | 90 | 0.0 | 1.0 | 0.00 | 0.09 | 0.04 | 68 | 984.4 |
| 20260508233505 | 76 | 90 | 0.0 | 1.0 | 0.00 | 0.09 | 0.04 | 69 | 984.3 |
| 20260508233005 | 76 | 1 | 0.0 | 1.0 | 0.00 | 0.09 | 0.04 | 70 | 984.2 |
| 20260508232505 | 76 | 31 | 0.0 | 1.0 | 0.00 | 0.09 | 0.04 | 70 | 984.3 |
| 20260508231504 | 75 | 79 | 0.0 | 4.0 | 0.00 | 0.09 | 0.04 | 70 | 984.4 |
| 20260508231005 | 75 | 83 | 0.0 | 4.0 | 0.00 | 0.09 | 0.04 | 70 | 984.3 |
| 20260508230505 | 75 | 70 | 2.0 | 4.0 | 0.00 | 0.09 | 0.04 | 70 | 984.1 |
| 20260508230005 | 75 | 64 | 0.0 | 3.0 | 0.00 | 0.09 | 0.04 | 70 | 984.0 |
| 20260508225005 | 75 | 0 | 0.0 | 0.0 | 0.01 | 0.09 | 0.04 | 71 | 984.0 |
| 20260508224504 | 76 | 0 | 0.0 | 0.0 | 0.01 | 0.09 | 0.04 | 70 | 984.2 |
| 20260508224005 | 76 | 0 | 0.0 | 0.0 | 0.01 | 0.09 | 0.04 | 70 | 984.1 |
| 20260508223505 | 76 | 0 | 0.0 | 0.0 | 0.01 | 0.09 | 0.04 | 70 | 984.1 |
| 20260508223004 | 76 | 0 | 0.0 | 0.0 | 0.01 | 0.09 | 0.04 | 70 | 984.2 |
| 20260508222505 | 76 | 0 | 0.0 | 0.0 | 0.01 | 0.09 | 0.04 | 70 | 984.1 |
| 20260508222005 | 76 | 0 | 0.0 | 0.0 | 0.01 | 0.09 | 0.04 | 70 | 984.0 |
| 20260508221506 | 76 | 0 | 0.0 | 0.0 | 0.01 | 0.09 | 0.04 | 70 | 984.0 |
| 20260508221005 | 75 | 0 | 0.0 | 0.0 | 0.01 | 0.09 | 0.04 | 70 | 983.8 |
| 20260508220504 | 75 | 90 | 0.0 | 1.0 | 0.04 | 0.09 | 0.04 | 70 | 983.8 |
| 20260508220005 | 75 | 90 | 0.0 | 1.0 | 0.04 | 0.09 | 0.04 | 70 | 983.8 |
| 20260508214506 | 75 | 90 | 0.0 | 1.0 | 0.02 | 0.08 | 0.02 | 70 | 983.9 |
| 20260508214005 | 75 | 0 | 0.0 | 0.0 | 0.02 | 0.08 | 0.02 | 70 | 983.7 |
| 20260508213505 | 75 | 135 | 0.0 | 1.0 | 0.02 | 0.09 | 0.02 | 70 | 983.4 |
| 20260508212505 | 75 | 0 | 0.0 | 0.0 | 0.02 | 0.09 | 0.02 | 70 | 983.4 |
| 20260508212005 | 75 | 83 | 0.0 | 2.0 | 0.02 | 0.09 | 0.02 | 70 | 983.4 |
| 20260508211505 | 75 | 71 | 0.0 | 2.0 | 0.02 | 0.09 | 0.02 | 70 | 983.4 |
| 20260508211005 | 75 | 46 | 0.0 | 2.0 | 0.02 | 0.09 | 0.02 | 69 | 983.3 |
| 20260508210505 | 76 | 90 | 0.0 | 2.0 | 0.00 | 0.07 | 0.00 | 68 | 983.3 |
| 20260508210005 | 76 | 88 | 0.0 | 2.0 | 0.00 | 0.07 | 0.00 | 69 | 983.2 |
| 20260508205505 | 76 | 85 | 0.0 | 2.0 | 0.00 | 0.07 | 0.00 | 69 | 983.2 |
| 20260508205005 | 76 | 90 | 0.0 | 1.0 | 0.00 | 0.07 | 0.00 | 69 | 983.4 |
| 20260508204505 | 76 | 80 | 0.0 | 2.0 | 0.00 | 0.08 | 0.00 | 69 | 983.2 |
| 20260508204005 | 76 | 76 | 0.0 | 2.0 | 0.00 | 0.08 | 0.00 | 69 | 983.3 |
| 20260508203004 | 77 | 291 | 0.0 | 4.0 | 0.00 | 0.11 | 0.00 | 70 | 983.3 |
| 20260508202006 | 77 | 230 | 0.0 | 2.0 | 0.00 | 0.11 | 0.00 | 71 | 983.0 |
| 20260508201505 | 77 | 191 | 0.0 | 1.0 | 0.00 | 0.11 | 0.00 | 71 | 983.1 |
| 20260508201005 | 76 | 171 | 0.0 | 1.0 | 0.00 | 0.11 | 0.00 | 71 | 983.1 |
| 20260508200505 | 76 | 0 | 0.0 | 0.0 | 0.00 | 0.11 | 0.00 | 71 | 983.2 |
| 20260508200004 | 76 | 0 | 0.0 | 0.0 | 0.00 | 0.11 | 0.00 | 71 | 983.1 |
| 20260508195505 | 76 | 0 | 0.0 | 0.0 | 0.00 | 0.11 | 0.00 | 71 | 982.9 |
| 20260508194506 | 76 | 0 | 0.0 | 0.0 | 0.00 | 0.11 | 0.00 | 71 | 982.7 |
| 20260508194006 | 76 | 0 | 0.0 | 0.0 | 0.00 | 0.11 | 0.00 | 71 | 982.7 |
| 20260508193505 | 76 | 0 | 0.0 | 0.0 | 0.00 | 0.11 | 0.00 | 70 | 982.7 |
| 20260508193005 | 76 | 0 | 0.0 | 0.0 | 0.00 | 0.11 | 0.00 | 70 | 982.9 |
| 20260508192506 | 77 | 0 | 0.0 | 0.0 | 0.00 | 0.11 | 0.00 | 70 | 983.0 |
| 20260508192005 | 77 | 0 | 0.0 | 0.0 | 0.00 | 0.11 | 0.00 | 70 | 982.9 |
| 20260508191505 | 77 | 0 | 0.0 | 0.0 | 0.00 | 0.11 | 0.00 | 70 | 982.8 |
| 20260508191005 | 77 | 0 | 0.0 | 0.0 | 0.00 | 0.11 | 0.00 | 70 | 982.8 |
| 20260508190005 | 77 | 0 | 0.0 | 0.0 | 0.00 | 0.11 | 0.00 | 70 | 982.8 |
| 20260508185505 | 77 | 0 | 0.0 | 0.0 | 0.00 | 0.11 | 0.00 | 70 | 982.7 |
| 20260508184506 | 77 | 0 | 0.0 | 0.0 | 0.00 | 0.11 | 0.00 | 70 | 982.7 |
| 20260508184005 | 77 | 0 | 0.0 | 0.0 | 0.00 | 0.11 | 0.00 | 70 | 982.8 |
| 20260508183505 | 77 | 0 | 0.0 | 0.0 | 0.00 | 0.11 | 0.00 | 70 | 982.7 |
| 20260508182505 | 77 | 0 | 0.0 | 0.0 | 0.00 | 0.11 | 0.00 | 70 | 982.7 |
| 20260508182006 | 77 | 0 | 0.0 | 0.0 | 0.00 | 0.11 | 0.00 | 70 | 983.1 |
| 20260508181005 | 77 | 0 | 0.0 | 0.0 | 0.00 | 0.11 | 0.00 | 70 | 982.9 |
| 20260508180005 | 77 | 0 | 0.0 | 0.0 | 0.00 | 0.11 | 0.00 | 70 | 982.9 |
| 20260508175006 | 77 | 0 | 0.0 | 0.0 | 0.00 | 0.11 | 0.00 | 70 | 982.7 |
| 20260508174505 | 77 | 0 | 0.0 | 0.0 | 0.00 | 0.11 | 0.00 | 70 | 982.9 |
| 20260508174005 | 77 | 0 | 0.0 | 0.0 | 0.00 | 0.11 | 0.00 | 70 | 982.9 |
| 20260508173506 | 77 | 0 | 0.0 | 0.0 | 0.00 | 0.11 | 0.00 | 69 | 982.9 |
| 20260508172505 | 77 | 0 | 0.0 | 0.0 | 0.00 | 0.11 | 0.00 | 70 | 983.0 |
| 20260508172006 | 77 | 0 | 0.0 | 0.0 | 0.00 | 0.11 | 0.00 | 69 | 983.0 |
| 20260508171506 | 78 | 0 | 0.0 | 0.0 | 0.00 | 0.11 | 0.00 | 69 | 983.2 |
| 20260508171005 | 78 | 0 | 0.0 | 0.0 | 0.00 | 0.11 | 0.00 | 69 | 983.3 |
| 20260508170506 | 78 | 296 | 0.0 | 1.0 | 0.00 | 0.11 | 0.00 | 69 | 983.2 |
| 20260508165506 | 78 | 355 | 0.0 | 2.0 | 0.00 | 0.11 | 0.00 | 69 | 983.3 |
| 20260508165005 | 78 | 329 | 0.0 | 2.0 | 0.00 | 0.11 | 0.00 | 69 | 983.1 |
| 20260508164506 | 78 | 111 | 0.0 | 1.0 | 0.00 | 0.11 | 0.00 | 69 | 983.5 |
| 20260508164005 | 78 | 139 | 0.0 | 1.0 | 0.00 | 0.11 | 0.00 | 69 | 983.3 |
| 20260508163506 | 78 | 156 | 0.0 | 1.0 | 0.00 | 0.11 | 0.00 | 69 | 983.4 |
| 20260508163006 | 78 | 0 | 0.0 | 0.0 | 0.00 | 0.11 | 0.00 | 69 | 983.3 |
| 20260508162505 | 78 | 0 | 0.0 | 0.0 | 0.00 | 0.11 | 0.00 | 70 | 983.3 |
| 20260508162006 | 78 | 109 | 0.0 | 1.0 | 0.00 | 0.11 | 0.00 | 70 | 983.3 |
| 20260508161505 | 78 | 109 | 0.0 | 1.0 | 0.00 | 0.11 | 0.00 | 70 | 983.5 |
| 20260508161006 | 78 | 0 | 0.0 | 0.0 | 0.00 | 0.11 | 0.00 | 70 | 983.5 |
| 20260508160506 | 78 | 0 | 0.0 | 0.0 | 0.00 | 0.11 | 0.00 | 69 | 983.7 |
| 20260508160006 | 78 | 249 | 0.0 | 2.0 | 0.00 | 0.11 | 0.00 | 70 | 983.6 |
| 20260508155505 | 78 | 249 | 0.0 | 2.0 | 0.00 | 0.11 | 0.11 | 70 | 983.4 |
| 20260508155006 | 78 | 0 | 0.0 | 0.0 | 0.00 | 0.11 | 0.11 | 70 | 983.6 |
| 20260508154505 | 78 | 160 | 0.0 | 1.0 | 0.00 | 0.11 | 0.11 | 70 | 983.6 |
| 20260508154005 | 78 | 160 | 0.0 | 1.0 | 0.00 | 0.11 | 0.11 | 70 | 983.7 |
| 20260508153005 | 78 | 112 | 0.0 | 1.0 | 0.00 | 0.11 | 0.11 | 69 | 983.6 |
| 20260508152505 | 79 | 0 | 0.0 | 0.0 | 0.00 | 0.11 | 0.11 | 69 | 983.7 |
| 20260508152006 | 79 | 0 | 0.0 | 0.0 | 0.00 | 0.11 | 0.11 | 69 | 983.6 |
| 20260508151505 | 79 | 0 | 0.0 | 0.0 | 0.00 | 0.11 | 0.11 | 69 | 983.7 |
| 20260508151006 | 79 | 0 | 0.0 | 0.0 | 0.00 | 0.11 | 0.11 | 70 | 983.8 |
| 20260508150505 | 79 | 0 | 0.0 | 0.0 | 0.00 | 0.11 | 0.11 | 70 | 983.7 |
| 20260508150006 | 79 | 0 | 0.0 | 0.0 | 0.00 | 0.11 | 0.11 | 70 | 983.8 |
| 20260508145505 | 79 | 0 | 0.0 | 0.0 | 0.00 | 0.11 | 0.11 | 70 | 984.0 |
| 20260508145006 | 79 | 0 | 0.0 | 0.0 | 0.00 | 0.11 | 0.11 | 70 | 983.8 |
| 20260508143007 | 79 | 0 | 0.0 | 0.0 | 0.00 | 0.11 | 0.11 | 69 | 983.7 |
| 20260508142506 | 79 | 0 | 0.0 | 0.0 | 0.00 | 0.11 | 0.11 | 69 | 983.6 |
| 20260508141506 | 79 | 0 | 0.0 | 0.0 | 0.00 | 0.11 | 0.11 | 69 | 983.6 |
| 20260508141007 | 79 | 0 | 0.0 | 0.0 | 0.00 | 0.11 | 0.11 | 68 | 983.7 |
| 20260508140505 | 79 | 0 | 0.0 | 0.0 | 0.00 | 0.11 | 0.11 | 67 | 983.4 |
| 20260508140006 | 80 | 0 | 0.0 | 0.0 | 0.00 | 0.11 | 0.11 | 67 | 983.6 |
| 20260508135505 | 80 | 0 | 0.0 | 0.0 | 0.00 | 0.11 | 0.11 | 67 | 983.5 |
| 20260508135006 | 80 | 0 | 0.0 | 0.0 | 0.00 | 0.11 | 0.11 | 67 | 983.4 |
| 20260508134505 | 80 | 0 | 0.0 | 0.0 | 0.00 | 0.11 | 0.11 | 67 | 983.6 |
| 20260508134008 | 80 | 0 | 0.0 | 0.0 | 0.00 | 0.11 | 0.11 | 67 | 983.4 |
| 20260508133506 | 80 | 0 | 0.0 | 0.0 | 0.00 | 0.11 | 0.11 | 67 | 983.3 |
| 20260508133005 | 80 | 257 | 0.0 | 1.0 | 0.00 | 0.11 | 0.11 | 67 | 983.3 |
| 20260508132506 | 80 | 232 | 0.0 | 1.0 | 0.00 | 0.11 | 0.11 | 67 | 983.2 |
| 20260508132006 | 80 | 146 | 0.0 | 1.0 | 0.00 | 0.11 | 0.11 | 67 | 983.1 |
| 20260508131506 | 80 | 0 | 0.0 | 0.0 | 0.00 | 0.11 | 0.11 | 67 | 983.3 |
| 20260508130505 | 80 | 0 | 0.0 | 0.0 | 0.00 | 0.11 | 0.11 | 67 | 983.2 |
| 20260508130006 | 80 | 0 | 0.0 | 0.0 | 0.00 | 0.11 | 0.11 | 67 | 983.0 |
| 20260508125509 | 80 | 0 | 0.0 | 0.0 | 0.00 | 0.11 | 0.11 | 66 | 983.1 |
| 20260508125006 | 80 | 0 | 0.0 | 0.0 | 0.00 | 0.15 | 0.11 | 67 | 983.1 |
| 20260508124006 | 80 | 90 | 0.0 | 1.0 | 0.00 | 0.15 | 0.11 | 67 | 982.9 |
| 20260508123507 | 80 | 90 | 0.0 | 1.0 | 0.00 | 0.15 | 0.11 | 66 | 982.9 |
| 20260508122506 | 80 | 90 | 0.0 | 1.0 | 0.00 | 0.15 | 0.11 | 66 | 982.7 |
| 20260508121506 | 80 | 64 | 0.0 | 2.0 | 0.00 | 0.15 | 0.11 | 65 | 982.7 |
| 20260508121006 | 81 | 60 | 0.0 | 2.0 | 0.00 | 0.15 | 0.11 | 64 | 982.7 |
| 20260508120006 | 81 | 135 | 0.0 | 2.0 | 0.00 | 0.15 | 0.11 | 64 | 982.6 |
| 20260508115506 | 81 | 176 | 0.0 | 3.0 | 0.00 | 0.15 | 0.11 | 64 | 982.5 |
| 20260508115006 | 81 | 297 | 0.0 | 3.0 | 0.00 | 0.15 | 0.11 | 64 | 982.4 |
| 20260508114507 | 82 | 339 | 1.0 | 4.0 | 0.00 | 0.15 | 0.11 | 61 | 982.4 |
| 20260508113006 | 82 | 252 | 0.0 | 1.0 | 0.00 | 0.15 | 0.11 | 61 | 982.2 |
| 20260508112006 | 82 | 202 | 0.0 | 2.0 | 0.00 | 0.15 | 0.11 | 61 | 982.1 |
| 20260508111507 | 82 | 162 | 0.0 | 2.0 | 0.00 | 0.15 | 0.11 | 61 | 982.0 |
| 20260508111006 | 82 | 245 | 0.0 | 3.0 | 0.00 | 0.15 | 0.11 | 61 | 982.2 |
| 20260508110506 | 82 | 238 | 0.0 | 3.0 | 0.00 | 0.15 | 0.11 | 61 | 982.1 |
| 20260508110006 | 82 | 193 | 0.0 | 2.0 | 0.00 | 0.15 | 0.11 | 61 | 982.2 |
| 20260508104507 | 82 | 0 | 0.0 | 0.0 | 0.00 | 0.15 | 0.11 | 61 | 981.9 |
| 20260508103506 | 82 | 0 | 0.0 | 0.0 | 0.06 | 0.15 | 0.11 | 61 | 982.0 |
| 20260508102505 | 82 | 102 | 0.0 | 1.0 | 0.06 | 0.15 | 0.11 | 61 | 982.0 |
| 20260508102006 | 83 | 102 | 0.0 | 1.0 | 0.06 | 0.15 | 0.11 | 60 | 982.1 |
| 20260508101506 | 83 | 0 | 0.0 | 0.0 | 0.06 | 0.15 | 0.11 | 60 | 982.1 |
| 20260508100506 | 83 | 0 | 0.0 | 0.0 | 0.06 | 0.15 | 0.11 | 59 | 981.9 |
| 20260508100009 | 84 | 0 | 0.0 | 0.0 | 0.06 | 0.15 | 0.11 | 59 | 981.7 |
| 20260508095507 | 84 | 0 | 0.0 | 0.0 | 0.06 | 0.15 | 0.11 | 59 | 981.9 |
| 20260508093948 | 84 | 0 | 0.0 | 0.0 | 0.00 | 0.09 | 0.05 | 59 | 981.7 |
| 20260508093447 | 85 | 1 | 0.0 | 1.0 | 0.00 | 0.09 | 0.05 | 57 | 981.5 |
| 20260508092947 | 85 | 1 | 0.0 | 1.0 | 0.00 | 0.09 | 0.05 | 56 | 981.6 |
| 20260508092448 | 85 | 0 | 0.0 | 0.0 | 0.00 | 0.15 | 0.05 | 55 | 981.6 |
| 20260508091947 | 85 | 0 | 0.0 | 0.0 | 0.00 | 0.15 | 0.05 | 54 | 981.6 |
| 20260508091448 | 85 | 225 | 0.0 | 1.0 | 0.00 | 0.15 | 0.05 | 54 | 981.7 |
| 20260508090947 | 86 | 225 | 0.0 | 1.0 | 0.00 | 0.15 | 0.05 | 53 | 981.4 |
| 20260508090448 | 86 | 135 | 0.0 | 4.0 | 0.00 | 0.15 | 0.05 | 52 | 981.4 |
| 20260508085947 | 86 | 141 | 0.0 | 4.0 | 0.00 | 0.15 | 0.05 | 53 | 981.5 |
| 20260508085449 | 86 | 226 | 0.0 | 1.0 | 0.00 | 0.15 | 0.05 | 52 | 981.6 |
| 20260508084947 | 87 | 264 | 0.0 | 2.0 | 0.00 | 0.15 | 0.05 | 52 | 981.4 |
| 20260508084448 | 87 | 31 | 0.0 | 2.0 | 0.00 | 0.15 | 0.05 | 52 | 981.4 |
| 20260508083948 | 87 | 27 | 0.0 | 4.0 | 0.00 | 0.15 | 0.05 | 52 | 981.3 |
| 20260508083447 | 87 | 322 | 0.0 | 4.0 | 0.00 | 0.15 | 0.05 | 52 | 981.2 |
| 20260508082948 | 87 | 272 | 0.0 | 3.0 | 0.00 | 0.15 | 0.05 | 52 | 981.4 |
| 20260508082447 | 88 | 63 | 0.0 | 2.0 | 0.00 | 0.15 | 0.05 | 52 | 981.3 |
| 20260508081947 | 88 | 226 | 0.0 | 2.0 | 0.00 | 0.15 | 0.05 | 52 | 981.3 |
| 20260508081449 | 88 | 234 | 0.0 | 3.0 | 0.00 | 0.15 | 0.05 | 53 | 981.2 |
| 20260508080947 | 88 | 251 | 0.0 | 3.0 | 0.00 | 0.15 | 0.05 | 52 | 981.2 |
| 20260508080448 | 88 | 295 | 0.0 | 2.0 | 0.00 | 0.15 | 0.05 | 52 | 980.9 |
| 20260508075948 | 88 | 230 | 1.0 | 6.0 | 0.00 | 0.15 | 0.05 | 53 | 980.9 |